sensor_id;sensor_type;location;lat;lon;timestamp;P1;durP1;ratioP1;P2;durP2;ratioP2
8415;SDS011;4245;42.120;24.732;2022-08-01T00:01:32;9.60;;;8.57;;
8415;SDS011;4245;42.120;24.732;2022-08-01T00:03:58;8.70;;;7.93;;
8415;SDS011;4245;42.120;24.732;2022-08-01T00:06:25;9.80;;;7.67;;
8415;SDS011;4245;42.120;24.732;2022-08-01T00:08:52;10.40;;;8.40;;
8415;SDS011;4245;42.120;24.732;2022-08-01T00:11:19;8.20;;;7.50;;
8415;SDS011;4245;42.120;24.732;2022-08-01T00:13:46;9.03;;;8.13;;
8415;SDS011;4245;42.120;24.732;2022-08-01T00:16:13;9.27;;;8.37;;
8415;SDS011;4245;42.120;24.732;2022-08-01T00:18:42;8.90;;;8.10;;
8415;SDS011;4245;42.120;24.732;2022-08-01T00:21:09;8.70;;;7.90;;
8415;SDS011;4245;42.120;24.732;2022-08-01T00:23:36;8.07;;;7.37;;
8415;SDS011;4245;42.120;24.732;2022-08-01T00:26:02;9.13;;;8.23;;
8415;SDS011;4245;42.120;24.732;2022-08-01T00:28:29;9.27;;;8.47;;
8415;SDS011;4245;42.120;24.732;2022-08-01T00:30:56;9.27;;;8.00;;
8415;SDS011;4245;42.120;24.732;2022-08-01T00:33:23;9.37;;;8.57;;
8415;SDS011;4245;42.120;24.732;2022-08-01T00:35:51;8.97;;;8.17;;
8415;SDS011;4245;42.120;24.732;2022-08-01T00:38:18;8.50;;;7.70;;
8415;SDS011;4245;42.120;24.732;2022-08-01T00:40:44;8.60;;;7.83;;
8415;SDS011;4245;42.120;24.732;2022-08-01T00:43:11;9.20;;;8.30;;
8415;SDS011;4245;42.120;24.732;2022-08-01T00:45:38;8.40;;;7.70;;
8415;SDS011;4245;42.120;24.732;2022-08-01T00:48:05;8.53;;;7.77;;
8415;SDS011;4245;42.120;24.732;2022-08-01T00:50:32;8.17;;;7.47;;
8415;SDS011;4245;42.120;24.732;2022-08-01T00:53:01;7.50;;;6.87;;
8415;SDS011;4245;42.120;24.732;2022-08-01T00:55:28;9.57;;;8.37;;
8415;SDS011;4245;42.120;24.732;2022-08-01T00:57:55;8.80;;;7.90;;
8415;SDS011;4245;42.120;24.732;2022-08-01T01:00:23;8.10;;;7.40;;
8415;SDS011;4245;42.120;24.732;2022-08-01T01:02:50;8.53;;;7.83;;
8415;SDS011;4245;42.120;24.732;2022-08-01T01:05:18;10.23;;;8.50;;
8415;SDS011;4245;42.120;24.732;2022-08-01T01:07:46;8.43;;;7.73;;
8415;SDS011;4245;42.120;24.732;2022-08-01T01:10:23;9.13;;;8.33;;
8415;SDS011;4245;42.120;24.732;2022-08-01T01:12:55;8.23;;;7.43;;
8415;SDS011;4245;42.120;24.732;2022-08-01T01:15:28;8.43;;;7.63;;
8415;SDS011;4245;42.120;24.732;2022-08-01T01:18:02;8.33;;;7.63;;
8415;SDS011;4245;42.120;24.732;2022-08-01T01:20:34;8.27;;;7.47;;
8415;SDS011;4245;42.120;24.732;2022-08-01T01:23:21;8.80;;;7.90;;
8415;SDS011;4245;42.120;24.732;2022-08-01T01:26:06;8.83;;;8.03;;
8415;SDS011;4245;42.120;24.732;2022-08-01T01:28:54;7.87;;;7.17;;
8415;SDS011;4245;42.120;24.732;2022-08-01T01:31:26;8.60;;;7.80;;
8415;SDS011;4245;42.120;24.732;2022-08-01T01:33:55;8.37;;;7.63;;
8415;SDS011;4245;42.120;24.732;2022-08-01T01:36:25;8.87;;;8.07;;
8415;SDS011;4245;42.120;24.732;2022-08-01T01:38:55;8.47;;;7.67;;
8415;SDS011;4245;42.120;24.732;2022-08-01T01:41:23;9.00;;;8.10;;
8415;SDS011;4245;42.120;24.732;2022-08-01T01:43:50;9.60;;;8.47;;
8415;SDS011;4245;42.120;24.732;2022-08-01T01:46:21;8.93;;;8.13;;
8415;SDS011;4245;42.120;24.732;2022-08-01T01:48:53;9.00;;;8.20;;
8415;SDS011;4245;42.120;24.732;2022-08-01T01:51:22;9.33;;;8.10;;
8415;SDS011;4245;42.120;24.732;2022-08-01T01:53:51;8.83;;;8.07;;
8415;SDS011;4245;42.120;24.732;2022-08-01T01:56:20;9.60;;;8.10;;
8415;SDS011;4245;42.120;24.732;2022-08-01T01:58:48;9.00;;;8.10;;
8415;SDS011;4245;42.120;24.732;2022-08-01T02:01:17;8.57;;;7.87;;
8415;SDS011;4245;42.120;24.732;2022-08-01T02:03:47;8.70;;;7.83;;
8415;SDS011;4245;42.120;24.732;2022-08-01T02:06:15;9.13;;;8.33;;
8415;SDS011;4245;42.120;24.732;2022-08-01T02:08:43;9.00;;;8.10;;
8415;SDS011;4245;42.120;24.732;2022-08-01T02:11:11;9.30;;;8.40;;
8415;SDS011;4245;42.120;24.732;2022-08-01T02:13:44;8.17;;;7.37;;
8415;SDS011;4245;42.120;24.732;2022-08-01T02:16:14;8.40;;;7.60;;
8415;SDS011;4245;42.120;24.732;2022-08-01T02:18:45;8.60;;;7.80;;
8415;SDS011;4245;42.120;24.732;2022-08-01T02:21:13;8.90;;;8.00;;
8415;SDS011;4245;42.120;24.732;2022-08-01T02:23:46;7.90;;;7.20;;
8415;SDS011;4245;42.120;24.732;2022-08-01T02:26:14;8.13;;;7.43;;
8415;SDS011;4245;42.120;24.732;2022-08-01T02:28:45;7.77;;;7.00;;
8415;SDS011;4245;42.120;24.732;2022-08-01T02:31:16;9.33;;;7.23;;
8415;SDS011;4245;42.120;24.732;2022-08-01T02:33:48;7.60;;;6.90;;
8415;SDS011;4245;42.120;24.732;2022-08-01T02:36:20;7.80;;;7.00;;
8415;SDS011;4245;42.120;24.732;2022-08-01T02:38:50;9.90;;;7.40;;
8415;SDS011;4245;42.120;24.732;2022-08-01T02:41:19;7.60;;;6.90;;
8415;SDS011;4245;42.120;24.732;2022-08-01T02:43:48;7.37;;;6.67;;
8415;SDS011;4245;42.120;24.732;2022-08-01T02:46:20;7.33;;;6.73;;
8415;SDS011;4245;42.120;24.732;2022-08-01T02:48:52;7.93;;;7.13;;
8415;SDS011;4245;42.120;24.732;2022-08-01T02:51:21;7.23;;;6.63;;
8415;SDS011;4245;42.120;24.732;2022-08-01T02:53:51;7.43;;;6.73;;
8415;SDS011;4245;42.120;24.732;2022-08-01T02:56:19;6.90;;;6.30;;
8415;SDS011;4245;42.120;24.732;2022-08-01T02:58:49;7.30;;;6.60;;
8415;SDS011;4245;42.120;24.732;2022-08-01T03:01:17;7.23;;;6.50;;
8415;SDS011;4245;42.120;24.732;2022-08-01T03:03:45;7.47;;;6.77;;
8415;SDS011;4245;42.120;24.732;2022-08-01T03:06:14;7.50;;;6.80;;
8415;SDS011;4245;42.120;24.732;2022-08-01T03:08:41;8.03;;;6.83;;
8415;SDS011;4245;42.120;24.732;2022-08-01T03:11:10;7.27;;;6.67;;
8415;SDS011;4245;42.120;24.732;2022-08-01T03:13:40;6.90;;;6.30;;
8415;SDS011;4245;42.120;24.732;2022-08-01T03:16:09;6.90;;;6.30;;
8415;SDS011;4245;42.120;24.732;2022-08-01T03:18:38;6.90;;;6.30;;
8415;SDS011;4245;42.120;24.732;2022-08-01T03:21:07;6.80;;;5.97;;
8415;SDS011;4245;42.120;24.732;2022-08-01T03:23:38;7.53;;;6.40;;
8415;SDS011;4245;42.120;24.732;2022-08-01T03:26:07;6.80;;;6.00;;
8415;SDS011;4245;42.120;24.732;2022-08-01T03:28:35;6.77;;;5.57;;
8415;SDS011;4245;42.120;24.732;2022-08-01T03:31:04;5.93;;;5.43;;
8415;SDS011;4245;42.120;24.732;2022-08-01T03:33:31;9.00;;;6.00;;
8415;SDS011;4245;42.120;24.732;2022-08-01T03:35:58;6.63;;;5.10;;
8415;SDS011;4245;42.120;24.732;2022-08-01T03:38:26;6.20;;;5.60;;
8415;SDS011;4245;42.120;24.732;2022-08-01T03:41:02;5.77;;;5.27;;
8415;SDS011;4245;42.120;24.732;2022-08-01T03:43:36;6.03;;;4.93;;
8415;SDS011;4245;42.120;24.732;2022-08-01T03:46:07;5.63;;;5.13;;
8415;SDS011;4245;42.120;24.732;2022-08-01T03:48:39;5.90;;;5.03;;
8415;SDS011;4245;42.120;24.732;2022-08-01T03:51:09;5.80;;;4.70;;
8415;SDS011;4245;42.120;24.732;2022-08-01T03:53:37;5.87;;;5.10;;
8415;SDS011;4245;42.120;24.732;2022-08-01T03:56:08;5.70;;;5.20;;
8415;SDS011;4245;42.120;24.732;2022-08-01T03:58:39;5.73;;;5.03;;
8415;SDS011;4245;42.120;24.732;2022-08-01T04:01:07;6.67;;;5.07;;
8415;SDS011;4245;42.120;24.732;2022-08-01T04:03:38;5.80;;;5.20;;
8415;SDS011;4245;42.120;24.732;2022-08-01T04:06:05;6.10;;;5.50;;
8415;SDS011;4245;42.120;24.732;2022-08-01T04:08:35;5.60;;;5.10;;
8415;SDS011;4245;42.120;24.732;2022-08-01T04:11:02;7.40;;;6.17;;
8415;SDS011;4245;42.120;24.732;2022-08-01T04:13:31;5.93;;;4.70;;
8415;SDS011;4245;42.120;24.732;2022-08-01T04:15:58;5.93;;;5.00;;
8415;SDS011;4245;42.120;24.732;2022-08-01T04:18:25;7.13;;;4.60;;
8415;SDS011;4245;42.120;24.732;2022-08-01T04:20:52;5.30;;;4.80;;
8415;SDS011;4245;42.120;24.732;2022-08-01T04:23:21;6.03;;;4.83;;
8415;SDS011;4245;42.120;24.732;2022-08-01T04:25:50;5.23;;;4.60;;
8415;SDS011;4245;42.120;24.732;2022-08-01T04:28:18;5.57;;;5.07;;
8415;SDS011;4245;42.120;24.732;2022-08-01T04:30:50;8.43;;;5.00;;
8415;SDS011;4245;42.120;24.732;2022-08-01T04:33:20;5.57;;;4.40;;
8415;SDS011;4245;42.120;24.732;2022-08-01T04:35:49;5.43;;;4.93;;
8415;SDS011;4245;42.120;24.732;2022-08-01T04:38:19;8.00;;;4.90;;
8415;SDS011;4245;42.120;24.732;2022-08-01T04:40:48;5.80;;;4.73;;
8415;SDS011;4245;42.120;24.732;2022-08-01T04:43:17;5.80;;;4.93;;
8415;SDS011;4245;42.120;24.732;2022-08-01T04:45:45;6.13;;;5.03;;
8415;SDS011;4245;42.120;24.732;2022-08-01T04:48:15;8.73;;;5.30;;
8415;SDS011;4245;42.120;24.732;2022-08-01T04:50:44;5.33;;;4.90;;
8415;SDS011;4245;42.120;24.732;2022-08-01T04:53:12;7.53;;;5.33;;
8415;SDS011;4245;42.120;24.732;2022-08-01T04:55:41;7.90;;;4.97;;
8415;SDS011;4245;42.120;24.732;2022-08-01T04:58:09;6.43;;;4.50;;
8415;SDS011;4245;42.120;24.732;2022-08-01T05:00:36;7.23;;;4.73;;
8415;SDS011;4245;42.120;24.732;2022-08-01T05:03:03;8.30;;;5.00;;
8415;SDS011;4245;42.120;24.732;2022-08-01T05:05:31;5.07;;;4.47;;
8415;SDS011;4245;42.120;24.732;2022-08-01T05:07:58;7.83;;;4.80;;
8415;SDS011;4245;42.120;24.732;2022-08-01T05:10:25;6.30;;;4.20;;
8415;SDS011;4245;42.120;24.732;2022-08-01T05:12:52;5.77;;;4.70;;
8415;SDS011;4245;42.120;24.732;2022-08-01T05:15:19;5.57;;;4.57;;
8415;SDS011;4245;42.120;24.732;2022-08-01T05:17:46;6.87;;;5.10;;
8415;SDS011;4245;42.120;24.732;2022-08-01T05:20:13;6.87;;;5.20;;
8415;SDS011;4245;42.120;24.732;2022-08-01T05:22:41;6.60;;;5.23;;
8415;SDS011;4245;42.120;24.732;2022-08-01T05:25:08;8.70;;;4.90;;
8415;SDS011;4245;42.120;24.732;2022-08-01T05:27:35;5.97;;;5.37;;
8415;SDS011;4245;42.120;24.732;2022-08-01T05:30:05;5.53;;;4.80;;
8415;SDS011;4245;42.120;24.732;2022-08-01T05:32:33;5.53;;;5.03;;
8415;SDS011;4245;42.120;24.732;2022-08-01T05:35:00;10.63;;;6.33;;
8415;SDS011;4245;42.120;24.732;2022-08-01T05:37:26;8.60;;;5.00;;
8415;SDS011;4245;42.120;24.732;2022-08-01T05:39:55;8.50;;;4.37;;
8415;SDS011;4245;42.120;24.732;2022-08-01T05:42:22;6.50;;;4.70;;
8415;SDS011;4245;42.120;24.732;2022-08-01T05:44:48;4.80;;;4.07;;
8415;SDS011;4245;42.120;24.732;2022-08-01T05:47:15;5.70;;;4.27;;
8415;SDS011;4245;42.120;24.732;2022-08-01T05:49:43;5.47;;;4.20;;
8415;SDS011;4245;42.120;24.732;2022-08-01T05:52:10;4.40;;;4.00;;
8415;SDS011;4245;42.120;24.732;2022-08-01T05:54:37;5.30;;;3.57;;
8415;SDS011;4245;42.120;24.732;2022-08-01T05:57:05;3.63;;;3.33;;
8415;SDS011;4245;42.120;24.732;2022-08-01T05:59:32;5.23;;;3.70;;
8415;SDS011;4245;42.120;24.732;2022-08-01T06:01:59;4.53;;;3.50;;
8415;SDS011;4245;42.120;24.732;2022-08-01T06:04:26;6.03;;;4.65;;
8415;SDS011;4245;42.120;24.732;2022-08-01T06:06:53;4.32;;;3.70;;
8415;SDS011;4245;42.120;24.732;2022-08-01T06:09:19;6.10;;;3.53;;
8415;SDS011;4245;42.120;24.732;2022-08-01T06:11:46;5.90;;;3.50;;
8415;SDS011;4245;42.120;24.732;2022-08-01T06:14:15;5.60;;;3.40;;
8415;SDS011;4245;42.120;24.732;2022-08-01T06:16:41;4.53;;;3.57;;
8415;SDS011;4245;42.120;24.732;2022-08-01T06:19:08;4.95;;;3.58;;
8415;SDS011;4245;42.120;24.732;2022-08-01T06:21:35;7.03;;;3.45;;
8415;SDS011;4245;42.120;24.732;2022-08-01T06:24:02;6.93;;;3.30;;
8415;SDS011;4245;42.120;24.732;2022-08-01T06:26:29;6.97;;;3.83;;
8415;SDS011;4245;42.120;24.732;2022-08-01T06:28:57;4.15;;;3.10;;
8415;SDS011;4245;42.120;24.732;2022-08-01T06:31:25;5.47;;;3.15;;
8415;SDS011;4245;42.120;24.732;2022-08-01T06:33:52;8.20;;;3.30;;
8415;SDS011;4245;42.120;24.732;2022-08-01T06:36:19;6.20;;;3.03;;
8415;SDS011;4245;42.120;24.732;2022-08-01T06:38:46;4.25;;;3.33;;
8415;SDS011;4245;42.120;24.732;2022-08-01T06:41:12;6.22;;;3.22;;
8415;SDS011;4245;42.120;24.732;2022-08-01T06:43:39;4.45;;;3.50;;
8415;SDS011;4245;42.120;24.732;2022-08-01T06:46:06;3.85;;;3.00;;
8415;SDS011;4245;42.120;24.732;2022-08-01T06:48:34;10.52;;;3.30;;
8415;SDS011;4245;42.120;24.732;2022-08-01T06:51:04;8.10;;;3.33;;
8415;SDS011;4245;42.120;24.732;2022-08-01T06:53:34;5.30;;;3.17;;
8415;SDS011;4245;42.120;24.732;2022-08-01T06:56:02;5.60;;;4.47;;
8415;SDS011;4245;42.120;24.732;2022-08-01T06:58:31;8.60;;;3.88;;
8415;SDS011;4245;42.120;24.732;2022-08-01T07:00:59;7.72;;;3.53;;
8415;SDS011;4245;42.120;24.732;2022-08-01T07:03:26;4.18;;;3.30;;
8415;SDS011;4245;42.120;24.732;2022-08-01T07:06:03;5.07;;;3.65;;
8415;SDS011;4245;42.120;24.732;2022-08-01T07:08:31;3.38;;;3.00;;
8415;SDS011;4245;42.120;24.732;2022-08-01T07:10:58;6.63;;;3.05;;
8415;SDS011;4245;42.120;24.732;2022-08-01T07:13:25;4.38;;;3.00;;
8415;SDS011;4245;42.120;24.732;2022-08-01T07:15:53;5.13;;;3.10;;
8415;SDS011;4245;42.120;24.732;2022-08-01T07:18:20;4.43;;;2.80;;
8415;SDS011;4245;42.120;24.732;2022-08-01T07:20:47;4.63;;;3.15;;
8415;SDS011;4245;42.120;24.732;2022-08-01T07:23:29;5.78;;;3.50;;
8415;SDS011;4245;42.120;24.732;2022-08-01T07:25:56;4.43;;;3.10;;
8415;SDS011;4245;42.120;24.732;2022-08-01T07:28:24;5.50;;;3.38;;
8415;SDS011;4245;42.120;24.732;2022-08-01T07:30:51;5.38;;;2.97;;
8415;SDS011;4245;42.120;24.732;2022-08-01T07:33:20;5.35;;;3.40;;
8415;SDS011;4245;42.120;24.732;2022-08-01T07:35:48;3.55;;;3.10;;
8415;SDS011;4245;42.120;24.732;2022-08-01T07:38:17;6.38;;;3.35;;
8415;SDS011;4245;42.120;24.732;2022-08-01T07:41:06;5.82;;;3.67;;
8415;SDS011;4245;42.120;24.732;2022-08-01T07:43:38;5.90;;;3.30;;
8415;SDS011;4245;42.120;24.732;2022-08-01T07:46:05;5.32;;;3.30;;
8415;SDS011;4245;42.120;24.732;2022-08-01T07:48:33;7.40;;;3.47;;
8415;SDS011;4245;42.120;24.732;2022-08-01T07:51:05;6.63;;;3.40;;
8415;SDS011;4245;42.120;24.732;2022-08-01T07:53:50;8.00;;;3.35;;
8415;SDS011;4245;42.120;24.732;2022-08-01T07:56:18;4.03;;;3.53;;
8415;SDS011;4245;42.120;24.732;2022-08-01T07:58:48;5.07;;;2.78;;
8415;SDS011;4245;42.120;24.732;2022-08-01T08:01:18;4.40;;;3.25;;
8415;SDS011;4245;42.120;24.732;2022-08-01T08:03:47;6.85;;;3.55;;
8415;SDS011;4245;42.120;24.732;2022-08-01T08:06:14;5.88;;;3.38;;
8415;SDS011;4245;42.120;24.732;2022-08-01T08:08:41;8.10;;;2.88;;
8415;SDS011;4245;42.120;24.732;2022-08-01T08:11:08;7.55;;;3.25;;
8415;SDS011;4245;42.120;24.732;2022-08-01T08:13:41;6.35;;;3.40;;
8415;SDS011;4245;42.120;24.732;2022-08-01T08:16:09;5.30;;;3.22;;
8415;SDS011;4245;42.120;24.732;2022-08-01T08:18:35;4.07;;;2.78;;
8415;SDS011;4245;42.120;24.732;2022-08-01T08:21:06;4.80;;;3.00;;
8415;SDS011;4245;42.120;24.732;2022-08-01T08:23:34;5.38;;;3.10;;
8415;SDS011;4245;42.120;24.732;2022-08-01T08:26:19;5.85;;;3.05;;
8415;SDS011;4245;42.120;24.732;2022-08-01T08:29:03;7.85;;;3.13;;
8415;SDS011;4245;42.120;24.732;2022-08-01T08:31:39;6.65;;;2.70;;
8415;SDS011;4245;42.120;24.732;2022-08-01T08:34:10;8.90;;;3.13;;
8415;SDS011;4245;42.120;24.732;2022-08-01T08:37:14;5.50;;;3.17;;
8415;SDS011;4245;42.120;24.732;2022-08-01T08:39:56;4.63;;;3.13;;
8415;SDS011;4245;42.120;24.732;2022-08-01T08:42:23;5.68;;;4.03;;
8415;SDS011;4245;42.120;24.732;2022-08-01T08:47:56;9.43;;;3.13;;
8415;SDS011;4245;42.120;24.732;2022-08-01T08:50:38;6.15;;;3.30;;
8415;SDS011;4245;42.120;24.732;2022-08-01T08:53:15;3.95;;;3.10;;
8415;SDS011;4245;42.120;24.732;2022-08-01T08:56:05;5.20;;;2.88;;
8415;SDS011;4245;42.120;24.732;2022-08-01T08:58:58;7.03;;;2.47;;
8415;SDS011;4245;42.120;24.732;2022-08-01T09:04:32;6.03;;;2.80;;
8415;SDS011;4245;42.120;24.732;2022-08-01T09:07:10;6.18;;;2.63;;
8415;SDS011;4245;42.120;24.732;2022-08-01T09:09:41;6.85;;;3.47;;
8415;SDS011;4245;42.120;24.732;2022-08-01T09:12:26;6.22;;;2.95;;
8415;SDS011;4245;42.120;24.732;2022-08-01T09:14:55;4.22;;;2.67;;
8415;SDS011;4245;42.120;24.732;2022-08-01T09:17:24;4.10;;;2.80;;
8415;SDS011;4245;42.120;24.732;2022-08-01T09:19:52;3.50;;;2.35;;
8415;SDS011;4245;42.120;24.732;2022-08-01T09:22:23;3.58;;;2.60;;
8415;SDS011;4245;42.120;24.732;2022-08-01T09:24:57;5.82;;;2.55;;
8415;SDS011;4245;42.120;24.732;2022-08-01T09:27:27;6.47;;;3.17;;
8415;SDS011;4245;42.120;24.732;2022-08-01T09:30:09;5.97;;;2.80;;
8415;SDS011;4245;42.120;24.732;2022-08-01T09:32:59;6.43;;;2.97;;
8415;SDS011;4245;42.120;24.732;2022-08-01T09:35:44;7.93;;;2.80;;
8415;SDS011;4245;42.120;24.732;2022-08-01T09:38:25;4.50;;;2.90;;
8415;SDS011;4245;42.120;24.732;2022-08-01T09:40:53;8.55;;;3.20;;
8415;SDS011;4245;42.120;24.732;2022-08-01T09:43:22;4.53;;;2.90;;
8415;SDS011;4245;42.120;24.732;2022-08-01T09:45:49;5.63;;;2.45;;
8415;SDS011;4245;42.120;24.732;2022-08-01T09:48:19;4.03;;;2.70;;
8415;SDS011;4245;42.120;24.732;2022-08-01T09:50:46;4.38;;;2.65;;
8415;SDS011;4245;42.120;24.732;2022-08-01T09:53:15;4.30;;;2.22;;
8415;SDS011;4245;42.120;24.732;2022-08-01T09:55:42;6.47;;;2.50;;
8415;SDS011;4245;42.120;24.732;2022-08-01T09:58:09;3.55;;;2.58;;
8415;SDS011;4245;42.120;24.732;2022-08-01T10:00:37;3.42;;;2.70;;
8415;SDS011;4245;42.120;24.732;2022-08-01T10:03:23;4.13;;;2.50;;
8415;SDS011;4245;42.120;24.732;2022-08-01T10:05:51;3.83;;;2.40;;
8415;SDS011;4245;42.120;24.732;2022-08-01T10:08:19;5.15;;;2.75;;
8415;SDS011;4245;42.120;24.732;2022-08-01T10:13:34;2.97;;;2.60;;
8415;SDS011;4245;42.120;24.732;2022-08-01T10:16:01;3.10;;;2.55;;
8415;SDS011;4245;42.120;24.732;2022-08-01T10:18:29;4.88;;;2.47;;
8415;SDS011;4245;42.120;24.732;2022-08-01T10:20:58;6.18;;;2.50;;
8415;SDS011;4245;42.120;24.732;2022-08-01T10:23:27;4.55;;;2.53;;
8415;SDS011;4245;42.120;24.732;2022-08-01T10:25:56;3.38;;;2.72;;
8415;SDS011;4245;42.120;24.732;2022-08-01T10:28:25;11.40;;;2.53;;
8415;SDS011;4245;42.120;24.732;2022-08-01T10:30:56;6.72;;;2.83;;
8415;SDS011;4245;42.120;24.732;2022-08-01T10:33:24;5.82;;;4.43;;
8415;SDS011;4245;42.120;24.732;2022-08-01T10:35:52;4.72;;;3.00;;
8415;SDS011;4245;42.120;24.732;2022-08-01T10:38:19;7.93;;;2.63;;
8415;SDS011;4245;42.120;24.732;2022-08-01T10:40:48;4.75;;;2.83;;
8415;SDS011;4245;42.120;24.732;2022-08-01T10:43:16;5.68;;;3.60;;
8415;SDS011;4245;42.120;24.732;2022-08-01T10:45:43;2.28;;;2.08;;
8415;SDS011;4245;42.120;24.732;2022-08-01T10:48:11;6.72;;;4.47;;
8415;SDS011;4245;42.120;24.732;2022-08-01T10:50:43;5.55;;;3.33;;
8415;SDS011;4245;42.120;24.732;2022-08-01T10:53:14;3.40;;;2.85;;
8415;SDS011;4245;42.120;24.732;2022-08-01T10:58:28;4.43;;;2.60;;
8415;SDS011;4245;42.120;24.732;2022-08-01T11:01:18;3.55;;;2.60;;
8415;SDS011;4245;42.120;24.732;2022-08-01T11:04:04;4.38;;;3.13;;
8415;SDS011;4245;42.120;24.732;2022-08-01T11:06:43;2.58;;;2.30;;
8415;SDS011;4245;42.120;24.732;2022-08-01T11:09:26;5.47;;;2.78;;
8415;SDS011;4245;42.120;24.732;2022-08-01T11:12:00;5.32;;;3.08;;
8415;SDS011;4245;42.120;24.732;2022-08-01T11:14:30;4.85;;;2.60;;
8415;SDS011;4245;42.120;24.732;2022-08-01T11:20:03;2.50;;;2.30;;
8415;SDS011;4245;42.120;24.732;2022-08-01T11:22:32;4.15;;;2.33;;
8415;SDS011;4245;42.120;24.732;2022-08-01T11:25:20;4.72;;;2.42;;
8415;SDS011;4245;42.120;24.732;2022-08-01T11:27:47;2.63;;;2.42;;
8415;SDS011;4245;42.120;24.732;2022-08-01T11:30:21;3.42;;;2.47;;
8415;SDS011;4245;42.120;24.732;2022-08-01T11:32:51;3.90;;;2.17;;
8415;SDS011;4245;42.120;24.732;2022-08-01T11:35:19;5.20;;;2.50;;
8415;SDS011;4245;42.120;24.732;2022-08-01T11:37:48;2.40;;;2.20;;
8415;SDS011;4245;42.120;24.732;2022-08-01T11:40:18;3.40;;;2.40;;
8415;SDS011;4245;42.120;24.732;2022-08-01T11:42:48;4.07;;;2.50;;
8415;SDS011;4245;42.120;24.732;2022-08-01T11:45:15;2.92;;;2.60;;
8415;SDS011;4245;42.120;24.732;2022-08-01T11:47:43;3.75;;;2.42;;
8415;SDS011;4245;42.120;24.732;2022-08-01T11:50:31;2.50;;;2.30;;
8415;SDS011;4245;42.120;24.732;2022-08-01T11:52:59;4.22;;;2.60;;
8415;SDS011;4245;42.120;24.732;2022-08-01T11:55:29;3.33;;;2.60;;
8415;SDS011;4245;42.120;24.732;2022-08-01T11:57:59;2.85;;;2.55;;
8415;SDS011;4245;42.120;24.732;2022-08-01T12:00:27;4.18;;;2.40;;
8415;SDS011;4245;42.120;24.732;2022-08-01T12:02:59;3.25;;;2.58;;
8415;SDS011;4245;42.120;24.732;2022-08-01T12:05:27;5.40;;;2.90;;
8415;SDS011;4245;42.120;24.732;2022-08-01T12:07:56;4.47;;;2.70;;
8415;SDS011;4245;42.120;24.732;2022-08-01T12:10:24;2.85;;;2.50;;
8415;SDS011;4245;42.120;24.732;2022-08-01T12:12:59;4.43;;;2.58;;
8415;SDS011;4245;42.120;24.732;2022-08-01T12:15:29;3.53;;;2.40;;
8415;SDS011;4245;42.120;24.732;2022-08-01T12:17:58;3.67;;;3.00;;
8415;SDS011;4245;42.120;24.732;2022-08-01T12:20:27;4.25;;;2.53;;
8415;SDS011;4245;42.120;24.732;2022-08-01T12:22:56;3.60;;;2.70;;
8415;SDS011;4245;42.120;24.732;2022-08-01T12:25:25;4.82;;;2.80;;
8415;SDS011;4245;42.120;24.732;2022-08-01T12:27:53;5.50;;;2.58;;
8415;SDS011;4245;42.120;24.732;2022-08-01T12:30:22;6.63;;;2.47;;
8415;SDS011;4245;42.120;24.732;2022-08-01T12:32:50;2.67;;;2.40;;
8415;SDS011;4245;42.120;24.732;2022-08-01T12:35:19;3.15;;;2.75;;
8415;SDS011;4245;42.120;24.732;2022-08-01T12:37:48;2.85;;;2.33;;
8415;SDS011;4245;42.120;24.732;2022-08-01T12:40:17;2.72;;;2.50;;
8415;SDS011;4245;42.120;24.732;2022-08-01T12:42:46;3.88;;;2.70;;
8415;SDS011;4245;42.120;24.732;2022-08-01T12:45:17;5.13;;;2.80;;
8415;SDS011;4245;42.120;24.732;2022-08-01T12:47:45;5.28;;;3.25;;
8415;SDS011;4245;42.120;24.732;2022-08-01T12:50:14;4.40;;;2.47;;
8415;SDS011;4245;42.120;24.732;2022-08-01T12:52:42;2.88;;;2.67;;
8415;SDS011;4245;42.120;24.732;2022-08-01T12:55:11;5.80;;;2.72;;
8415;SDS011;4245;42.120;24.732;2022-08-01T12:57:40;3.67;;;2.65;;
8415;SDS011;4245;42.120;24.732;2022-08-01T13:00:11;7.53;;;2.88;;
8415;SDS011;4245;42.120;24.732;2022-08-01T13:02:42;4.90;;;2.47;;
8415;SDS011;4245;42.120;24.732;2022-08-01T13:05:13;3.42;;;2.50;;
8415;SDS011;4245;42.120;24.732;2022-08-01T13:07:45;3.80;;;2.42;;
8415;SDS011;4245;42.120;24.732;2022-08-01T13:10:15;4.20;;;2.92;;
8415;SDS011;4245;42.120;24.732;2022-08-01T13:12:53;2.85;;;2.60;;
8415;SDS011;4245;42.120;24.732;2022-08-01T13:15:23;3.15;;;2.72;;
8415;SDS011;4245;42.120;24.732;2022-08-01T13:17:53;3.30;;;3.00;;
8415;SDS011;4245;42.120;24.732;2022-08-01T13:20:24;5.88;;;2.80;;
8415;SDS011;4245;42.120;24.732;2022-08-01T13:22:53;5.28;;;3.40;;
8415;SDS011;4245;42.120;24.732;2022-08-01T13:25:20;6.20;;;3.08;;
8415;SDS011;4245;42.120;24.732;2022-08-01T13:27:47;2.95;;;2.70;;
8415;SDS011;4245;42.120;24.732;2022-08-01T13:30:14;3.40;;;2.80;;
8415;SDS011;4245;42.120;24.732;2022-08-01T13:32:42;5.15;;;2.60;;
8415;SDS011;4245;42.120;24.732;2022-08-01T13:35:12;2.80;;;2.50;;
8415;SDS011;4245;42.120;24.732;2022-08-01T13:37:40;2.85;;;2.60;;
8415;SDS011;4245;42.120;24.732;2022-08-01T13:40:09;4.28;;;2.70;;
8415;SDS011;4245;42.120;24.732;2022-08-01T13:42:37;8.40;;;2.80;;
8415;SDS011;4245;42.120;24.732;2022-08-01T13:45:05;3.25;;;2.97;;
8415;SDS011;4245;42.120;24.732;2022-08-01T13:47:36;4.00;;;2.60;;
8415;SDS011;4245;42.120;24.732;2022-08-01T13:50:03;2.85;;;2.63;;
8415;SDS011;4245;42.120;24.732;2022-08-01T13:52:32;5.03;;;2.97;;
8415;SDS011;4245;42.120;24.732;2022-08-01T13:54:59;3.55;;;3.03;;
8415;SDS011;4245;42.120;24.732;2022-08-01T13:57:26;3.88;;;2.90;;
8415;SDS011;4245;42.120;24.732;2022-08-01T13:59:54;4.53;;;3.00;;
8415;SDS011;4245;42.120;24.732;2022-08-01T14:02:23;3.88;;;2.60;;
8415;SDS011;4245;42.120;24.732;2022-08-01T14:04:50;2.80;;;2.60;;
8415;SDS011;4245;42.120;24.732;2022-08-01T14:07:17;3.55;;;2.85;;
8415;SDS011;4245;42.120;24.732;2022-08-01T14:09:45;3.63;;;3.33;;
8415;SDS011;4245;42.120;24.732;2022-08-01T14:12:12;4.25;;;3.20;;
8415;SDS011;4245;42.120;24.732;2022-08-01T14:14:39;3.72;;;3.33;;
8415;SDS011;4245;42.120;24.732;2022-08-01T14:17:05;4.00;;;2.85;;
8415;SDS011;4245;42.120;24.732;2022-08-01T14:19:32;4.15;;;3.72;;
8415;SDS011;4245;42.120;24.732;2022-08-01T14:21:59;6.65;;;2.80;;
8415;SDS011;4245;42.120;24.732;2022-08-01T14:24:26;3.85;;;3.25;;
8415;SDS011;4245;42.120;24.732;2022-08-01T14:26:54;4.25;;;2.50;;
8415;SDS011;4245;42.120;24.732;2022-08-01T14:29:21;3.45;;;3.15;;
8415;SDS011;4245;42.120;24.732;2022-08-01T14:31:48;3.33;;;3.03;;
8415;SDS011;4245;42.120;24.732;2022-08-01T14:34:15;5.65;;;4.80;;
8415;SDS011;4245;42.120;24.732;2022-08-01T14:36:42;7.72;;;3.00;;
8415;SDS011;4245;42.120;24.732;2022-08-01T14:39:09;4.97;;;3.65;;
8415;SDS011;4245;42.120;24.732;2022-08-01T14:41:36;6.22;;;4.13;;
8415;SDS011;4245;42.120;24.732;2022-08-01T14:44:04;5.60;;;3.30;;
8415;SDS011;4245;42.120;24.732;2022-08-01T14:46:31;3.50;;;3.20;;
8415;SDS011;4245;42.120;24.732;2022-08-01T14:48:58;5.55;;;3.70;;
8415;SDS011;4245;42.120;24.732;2022-08-01T14:51:25;4.47;;;3.50;;
8415;SDS011;4245;42.120;24.732;2022-08-01T14:53:52;4.55;;;3.03;;
8415;SDS011;4245;42.120;24.732;2022-08-01T14:56:19;5.28;;;3.63;;
8415;SDS011;4245;42.120;24.732;2022-08-01T14:58:46;5.25;;;3.60;;
8415;SDS011;4245;42.120;24.732;2022-08-01T15:01:14;4.72;;;3.50;;
8415;SDS011;4245;42.120;24.732;2022-08-01T15:03:41;3.50;;;3.20;;
8415;SDS011;4245;42.120;24.732;2022-08-01T15:06:08;4.93;;;3.00;;
8415;SDS011;4245;42.120;24.732;2022-08-01T15:08:36;5.15;;;3.38;;
8415;SDS011;4245;42.120;24.732;2022-08-01T15:11:03;3.95;;;3.15;;
8415;SDS011;4245;42.120;24.732;2022-08-01T15:13:30;5.63;;;3.50;;
8415;SDS011;4245;42.120;24.732;2022-08-01T15:15:57;4.60;;;3.13;;
8415;SDS011;4245;42.120;24.732;2022-08-01T15:18:25;3.90;;;3.50;;
8415;SDS011;4245;42.120;24.732;2022-08-01T15:20:52;3.70;;;3.30;;
8415;SDS011;4245;42.120;24.732;2022-08-01T15:23:19;3.88;;;3.15;;
8415;SDS011;4245;42.120;24.732;2022-08-01T15:25:46;4.30;;;3.10;;
8415;SDS011;4245;42.120;24.732;2022-08-01T15:28:13;4.93;;;3.40;;
8415;SDS011;4245;42.120;24.732;2022-08-01T15:30:40;6.32;;;3.25;;